Time;durP1;ratioP1;P1;durP2;ratioP2;P2;SDS_P1;SDS_P2;PMS_P1;PMS_P2;Temp;Humidity;BMP_temperature;BMP_pressure;BME280_temperature;BME280_humidity;BME280_pressure;Samples;Min_cycle;Max_cycle;Signal;HPM_P1;HPM_P2
2022/05/02 00:01:05;;;;;;;3.00;2.67;;;;;;;30.83;71.38;100625.84;5041634;28;66129;-39
2022/05/02 00:03:35;;;;;;;2.90;2.70;;;;;;;31.03;71.11;100647.28;5039978;28;69360;-37
2022/05/02 00:06:07;;;;;;;2.90;2.80;;;;;;;31.14;70.72;100668.19;5041373;28;65813;-38
2022/05/02 00:08:37;;;;;;;3.60;2.55;;;;;;;31.15;71.02;100666.31;5041508;28;69772;-38
2022/05/02 00:11:07;;;;;;;2.42;2.30;;;;;;;31.20;70.76;100663.72;5040272;28;66588;-39
2022/05/02 00:13:37;;;;;;;3.15;2.95;;;;;;;31.22;70.59;100671.66;5040960;28;70263;-38
2022/05/02 00:16:08;;;;;;;3.30;3.10;;;;;;;31.14;70.58;100668.19;5040954;28;66447;-39
2022/05/02 00:18:38;;;;;;;2.83;2.63;;;;;;;31.24;70.47;100675.78;5039785;28;70092;-39
2022/05/02 00:21:08;;;;;;;2.92;2.70;;;;;;;31.29;70.25;100678.66;5040451;28;66115;-39
2022/05/02 00:23:38;;;;;;;2.95;2.58;;;;;;;31.32;69.94;100685.50;5040537;28;69616;-39
2022/05/02 00:26:09;;;;;;;2.50;2.40;;;;;;;31.30;70.56;100677.56;5037488;28;66515;-38
2022/05/02 00:28:39;;;;;;;2.85;2.70;;;;;;;31.35;70.48;100685.03;5039594;28;69992;-38
2022/05/02 00:31:09;;;;;;;3.20;2.90;;;;;;;31.22;70.47;100655.38;5040840;28;65451;-38
2022/05/02 00:33:39;;;;;;;3.08;2.88;;;;;;;31.38;70.10;100681.91;5038847;28;68843;-39
2022/05/02 00:36:09;;;;;;;2.92;2.72;;;;;;;31.36;70.45;100684.81;5040236;28;65774;-38
2022/05/02 00:38:39;;;;;;;3.65;3.00;;;;;;;31.42;70.47;100688.50;5040386;28;70686;-38
2022/05/02 00:41:11;;;;;;;3.45;3.25;;;;;;;31.36;70.29;100675.88;5038966;28;65761;-38
2022/05/02 00:43:41;;;;;;;3.30;3.10;;;;;;;31.15;69.90;100642.75;5041167;28;69790;-37
2022/05/02 00:46:25;;;;;;;3.30;3.00;;;;;;;31.42;69.77;100676.84;5041005;28;65479;-38
2022/05/02 00:48:55;;;;;;;3.30;3.10;;;;;;;31.41;69.99;100681.44;5040837;28;70212;-38
2022/05/02 00:51:25;;;;;;;3.50;3.30;;;;;;;31.35;69.72;100658.75;5040223;28;66575;-37
2022/05/02 00:53:56;;;;;;;3.45;3.25;;;;;;;31.39;69.89;100664.56;5039118;28;70122;-38
2022/05/02 00:56:26;;;;;;;3.65;3.45;;;;;;;31.54;69.99;100677.72;5038939;28;66432;-38
2022/05/02 00:58:56;;;;;;;3.45;3.25;;;;;;;31.55;69.74;100677.47;5040269;28;70006;-37
2022/05/02 01:01:26;;;;;;;3.38;3.17;;;;;;;31.34;69.70;100648.13;5037926;28;65833;-38
2022/05/02 01:03:57;;;;;;;3.30;3.07;;;;;;;31.55;69.87;100679.38;5039035;28;69158;-37
2022/05/02 01:09:16;;;;;;;3.42;3.20;;;;;;;31.60;69.55;100683.06;5040221;28;70229;-40
2022/05/02 01:11:46;;;;;;;3.42;3.22;;;;;;;31.64;69.65;100679.88;5021924;28;64676;-38
2022/05/02 01:14:16;;;;;;;3.35;3.15;;;;;;;31.66;69.88;100683.19;5036163;28;68763;-38
2022/05/02 01:16:46;;;;;;;3.38;3.17;;;;;;;31.59;69.37;100669.72;5040571;28;66331;-39
2022/05/02 01:19:16;;;;;;;3.10;2.90;;;;;;;31.62;69.76;100671.97;5039847;28;69355;-38
2022/05/02 01:21:47;;;;;;;3.38;2.85;;;;;;;31.67;69.36;100684.84;5038425;28;66444;-39
2022/05/02 01:24:17;;;;;;;3.40;3.20;;;;;;;31.70;69.18;100687.09;5039760;28;69977;-39
2022/05/02 01:26:47;;;;;;;3.10;2.90;;;;;;;31.75;69.42;100700.78;5038677;28;65274;-39
2022/05/02 01:29:17;;;;;;;3.40;3.20;;;;;;;31.68;69.50;100697.31;5054363;28;69183;-39
2022/05/02 01:31:47;;;;;;;3.67;3.47;;;;;;;31.77;69.06;100706.81;5040296;28;66232;-39
2022/05/02 01:34:18;;;;;;;3.63;3.38;;;;;;;31.80;69.14;100718.00;5039542;28;70262;-38
2022/05/02 01:36:48;;;;;;;3.90;3.60;;;;;;;31.82;68.97;100731.38;5038979;28;65901;-39
2022/05/02 01:39:18;;;;;;;3.20;3.00;;;;;;;31.85;68.97;100720.06;5042487;28;69996;-38
2022/05/02 01:41:49;;;;;;;3.20;3.00;;;;;;;31.73;69.03;100701.03;5042605;28;65865;-38
2022/05/02 01:44:19;;;;;;;3.28;3.08;;;;;;;31.89;68.90;100726.66;5039866;28;70423;-38
2022/05/02 01:46:49;;;;;;;3.60;3.35;;;;;;;31.90;69.01;100733.75;5042464;28;66723;-38
2022/05/02 01:49:19;;;;;;;7.63;3.55;;;;;;;31.81;68.86;100713.41;5042202;28;69598;-38
2022/05/02 01:51:50;;;;;;;3.80;3.50;;;;;;;31.94;69.34;100729.53;5042670;28;65643;-39
2022/05/02 01:54:22;;;;;;;3.70;3.50;;;;;;;31.97;69.14;100741.81;5041171;28;70084;-39
2022/05/02 01:56:55;;;;;;;3.53;3.25;;;;;;;32.00;68.76;100746.78;5028397;28;65124;-39
2022/05/02 01:59:25;;;;;;;3.67;3.38;;;;;;;32.00;68.44;100750.31;5035819;28;69498;-38
2022/05/02 02:01:55;;;;;;;3.70;3.50;;;;;;;32.02;69.00;100750.91;5030552;28;66320;-39
2022/05/02 02:07:17;;;;;;;4.25;3.95;;;;;;;31.99;68.97;100723.44;5070402;28;43531;-38
2022/05/02 02:09:47;;;;;;;4.43;4.13;;;;;;;32.06;69.02;100740.41;5026809;28;69363;-39
2022/05/02 02:12:17;;;;;;;3.47;3.17;;;;;;;32.07;68.95;100741.22;5028732;28;66040;-39
2022/05/02 02:14:47;;;;;;;3.80;3.50;;;;;;;31.96;68.60;100727.44;5032565;28;69575;-38
2022/05/02 02:17:18;;;;;;;3.92;3.67;;;;;;;32.05;69.05;100757.75;5027817;28;66250;-36
2022/05/02 02:19:48;;;;;;;5.40;5.10;;;;;;;32.06;69.09;100759.41;5026360;28;69506;-37
2022/05/02 02:22:18;;;;;;;7.28;6.85;;;;;;;32.02;68.86;100788.06;5036006;28;65956;-38
2022/05/02 02:24:48;;;;;;;7.80;7.20;;;;;;;32.06;69.24;100808.25;5035292;28;69956;-38
2022/05/02 02:27:19;;;;;;;8.32;7.60;;;;;;;32.07;69.01;100787.38;5034237;28;65442;-38
2022/05/02 02:29:49;;;;;;;8.00;6.72;;;;;;;32.05;69.50;100774.03;5026214;28;68199;-38
2022/05/02 02:32:20;;;;;;;7.88;7.13;;;;;;;32.03;69.28;100768.84;5021181;28;66201;-38
2022/05/02 02:34:50;;;;;;;11.63;6.97;;;;;;;32.01;69.78;100779.13;5023175;28;70080;-38
2022/05/02 02:37:20;;;;;;;8.40;7.40;;;;;;;31.98;70.09;100774.16;5028592;28;65172;-38
2022/05/02 02:39:51;;;;;;;8.35;7.60;;;;;;;31.97;70.33;100766.22;5022060;28;70472;-38
2022/05/02 02:42:22;;;;;;;8.70;7.75;;;;;;;31.93;69.85;100765.88;5022861;28;66539;-38
2022/05/02 02:44:53;;;;;;;8.38;7.68;;;;;;;31.94;70.57;100778.38;5021851;28;70115;-38
2022/05/02 02:47:23;;;;;;;8.50;7.70;;;;;;;31.90;70.54;100765.44;5019254;28;66219;-39
2022/05/02 02:49:53;;;;;;;13.48;8.00;;;;;;;31.88;70.42;100757.56;5024205;28;70479;-38
2022/05/02 02:52:24;;;;;;;8.38;7.65;;;;;;;31.95;70.21;100774.59;5018600;28;65902;-38
2022/05/02 02:54:54;;;;;;;8.35;7.55;;;;;;;31.91;70.46;100773.41;5028061;28;69685;-39
2022/05/02 02:57:24;;;;;;;7.82;7.13;;;;;;;31.92;70.54;100780.47;5027488;28;66449;-38
2022/05/02 02:59:54;;;;;;;8.02;7.28;;;;;;;31.94;70.67;100766.69;5022838;28;70632;-38
2022/05/02 03:02:24;;;;;;;7.15;6.63;;;;;;;31.85;70.71;100741.75;5021547;28;66315;-39
2022/05/02 03:07:44;;;;;;;7.22;6.63;;;;;;;31.92;70.53;100764.19;5019321;28;66088;-38
2022/05/02 03:10:14;;;;;;;7.13;6.43;;;;;;;31.93;70.62;100752.31;5030582;28;70205;-37
2022/05/02 03:12:45;;;;;;;9.02;6.40;;;;;;;31.95;70.42;100752.06;5020001;28;66603;-38
2022/05/02 03:15:16;;;;;;;8.32;7.20;;;;;;;31.95;70.26;100741.22;5064700;28;69061;-38
2022/05/02 03:17:46;;;;;;;7.35;6.28;;;;;;;31.94;70.58;100724.09;5022778;28;66228;-38
2022/05/02 03:20:16;;;;;;;11.95;6.50;;;;;;;31.91;70.42;100712.88;5019140;28;69991;-39
2022/05/02 03:22:47;;;;;;;7.22;5.85;;;;;;;31.99;70.27;100720.72;5019479;28;66075;-38
2022/05/02 03:25:17;;;;;;;8.00;6.50;;;;;;;32.05;69.75;100736.06;5022004;28;70417;-37
2022/05/02 03:27:47;;;;;;;8.07;6.30;;;;;;;31.98;70.03;100719.88;5028958;28;66104;-38
2022/05/02 03:30:18;;;;;;;6.32;5.72;;;;;;;32.11;69.77;100728.88;5025010;28;69109;-36
2022/05/02 03:32:53;;;;;;;7.60;5.65;;;;;;;32.15;69.79;100730.91;5034329;28;66262;-38
2022/05/02 03:35:25;;;;;;;9.52;5.75;;;;;;;32.06;69.60;100716.00;5023485;28;68942;-38
2022/05/02 03:37:55;;;;;;;;;;;;;;;31.86;70.57;100737.97;5021201;28;66413;-39
2022/05/02 03:40:25;;;;;;;7.75;4.82;;;;;;;32.17;69.69;100733.38;5028035;28;70503;-37
2022/05/02 03:42:55;;;;;;;5.57;4.75;;;;;;;32.21;69.57;100724.53;5034847;28;66014;-37
2022/05/02 03:45:27;;;;;;;6.05;4.63;;;;;;;32.20;69.31;100720.16;5032041;28;70618;-40
2022/05/02 03:47:59;;;;;;;6.18;4.97;;;;;;;32.08;69.76;100707.63;5022051;28;65254;-38
2022/05/02 03:50:29;;;;;;;6.45;4.45;;;;;;;32.24;69.28;100715.09;5017892;28;70126;-38
2022/05/02 03:52:59;;;;;;;4.47;4.07;;;;;;;32.26;69.30;100718.38;5024322;28;66578;-39
2022/05/02 03:55:30;;;;;;;7.38;5.35;;;;;;;32.27;69.20;100722.78;5033831;28;69179;-39
2022/05/02 03:58:02;;;;;;;7.18;4.60;;;;;;;32.27;69.40;100714.63;5026717;28;65922;-39
2022/05/02 04:00:32;;;;;;;6.32;4.80;;;;;;;32.15;69.06;100692.91;5027535;28;69795;-40
2022/05/02 04:03:02;;;;;;;7.15;4.35;;;;;;;32.29;69.27;100717.94;5024892;28;66218;-38
2022/05/02 04:05:33;;;;;;;7.55;4.00;;;;;;;32.25;69.12;100703.19;5028992;28;70023;-39
2022/05/02 04:08:03;;;;;;;4.80;4.35;;;;;;;32.23;69.03;100695.28;5020576;28;66693;-39
2022/05/02 04:10:33;;;;;;;6.72;4.50;;;;;;;32.31;69.20;100701.41;5020841;28;69427;-38
2022/05/02 04:13:04;;;;;;;7.13;4.50;;;;;;;32.31;69.35;100694.09;5021383;28;66583;-39
2022/05/02 04:15:34;;;;;;;7.57;4.30;;;;;;;32.31;68.94;100695.97;5020496;28;71368;-38
2022/05/02 04:18:04;;;;;;;5.53;4.43;;;;;;;32.32;69.42;100709.34;5021106;28;65705;-38
2022/05/02 04:20:35;;;;;;;3.97;3.67;;;;;;;32.32;69.20;100706.63;5020542;28;70417;-37
2022/05/02 04:23:05;;;;;;;4.63;4.03;;;;;;;32.30;69.07;100706.03;5021360;28;66870;-39
2022/05/02 04:25:35;;;;;;;4.20;3.90;;;;;;;32.30;69.07;100705.19;5019970;28;69597;-37
2022/05/02 04:28:07;;;;;;;4.20;3.90;;;;;;;32.29;69.02;100709.81;5020938;28;65542;-38
2022/05/02 04:30:37;;;;;;;6.95;4.15;;;;;;;32.33;69.18;100710.16;5020771;28;69384;-38
2022/05/02 04:33:08;;;;;;;6.47;4.60;;;;;;;32.32;69.40;100722.06;5019905;28;65819;-39
2022/05/02 04:35:38;;;;;;;5.07;4.47;;;;;;;32.35;69.20;100708.03;5020492;28;68877;-38
2022/05/02 04:38:08;;;;;;;4.75;4.22;;;;;;;32.23;69.12;100686.28;5020676;28;66432;-38
2022/05/02 04:40:38;;;;;;;5.80;4.55;;;;;;;32.35;69.19;100699.91;5018121;28;69031;-38
2022/05/02 04:43:09;;;;;;;5.05;4.30;;;;;;;32.34;69.56;100703.66;5033327;28;66760;-39
2022/05/02 04:45:39;;;;;;;4.88;4.47;;;;;;;32.37;69.53;100695.84;5030452;28;69867;-38
2022/05/02 04:48:10;;;;;;;5.70;4.47;;;;;;;32.41;69.29;100701.66;5023102;28;66480;-39
2022/05/02 04:50:40;;;;;;;5.22;4.78;;;;;;;32.37;69.27;100695.84;5005010;28;68540;-38
2022/05/02 04:53:10;;;;;;;4.60;4.30;;;;;;;32.42;69.28;100687.84;5033652;28;66289;-38
2022/05/02 04:55:41;;;;;;;5.32;4.63;;;;;;;32.44;69.24;100684.91;5025790;28;69715;-38
2022/05/02 04:58:11;;;;;;;5.15;4.75;;;;;;;32.43;69.28;100681.38;5024730;28;65995;-38
2022/05/02 05:00:43;;;;;;;6.75;4.57;;;;;;;32.45;69.19;100676.50;5026546;28;70025;-38
2022/05/02 05:03:13;;;;;;;5.38;4.88;;;;;;;32.42;69.26;100660.69;5035136;28;66120;-38
2022/05/02 05:05:44;;;;;;;5.03;4.63;;;;;;;32.39;69.12;100653.03;5022312;28;68797;-39
2022/05/02 05:08:15;;;;;;;5.00;4.50;;;;;;;32.33;69.00;100620.56;5026897;28;65844;-38
2022/05/02 05:11:31;;;;;;;5.57;5.07;;;;;;;32.36;69.24;100644.53;5025242;28;70398;-39
2022/05/02 05:17:24;;;;;;;5.60;4.70;;;;;;;32.46;68.95;100633.94;5029021;28;69980;-38
2022/05/02 05:20:20;;;;;;;5.43;4.93;;;;;;;31.89;68.87;100544.91;5035037;28;65939;-38
2022/05/02 05:23:01;;;;;;;4.75;4.45;;;;;;;32.45;69.20;100622.22;5024553;28;69335;-39
2022/05/02 05:25:32;;;;;;;5.10;4.80;;;;;;;32.46;69.02;100618.47;5028345;28;66143;-38
2022/05/02 05:28:23;;;;;;;5.22;4.93;;;;;;;32.39;68.82;100614.19;5039777;28;68646;-38
2022/05/02 05:31:26;;;;;;;5.30;4.90;;;;;;;32.45;68.64;100610.53;5039951;28;66453;-37
2022/05/02 05:34:17;;;;;;;6.07;5.38;;;;;;;32.44;68.85;100607.00;5043098;28;69672;-38
2022/05/02 05:37:23;;;;;;;5.05;4.75;;;;;;;32.28;68.75;100572.41;5042046;28;65785;-38
2022/05/02 05:40:13;;;;;;;6.00;5.63;;;;;;;31.96;68.71;100507.69;5043016;28;69622;-38
2022/05/02 05:42:48;;;;;;;6.00;5.60;;;;;;;32.55;68.52;100588.25;5041907;28;65974;-38
2022/05/02 05:45:29;;;;;;;5.70;5.30;;;;;;;32.29;68.27;100536.09;5042842;28;70244;-38
2022/05/02 05:48:28;;;;;;;6.05;5.65;;;;;;;32.52;68.22;100569.72;5042066;28;65839;-36
2022/05/02 05:51:36;;;;;;;5.55;5.18;;;;;;;32.45;67.97;100567.09;5043526;28;70205;-39
2022/05/02 05:54:44;;;;;;;6.47;6.07;;;;;;;32.44;67.84;100566.28;5013358;28;66243;-38
2022/05/02 05:57:27;;;;;;;6.10;5.70;;;;;;;32.59;67.64;100559.53;5042652;28;69535;-38
2022/05/02 06:00:10;;;;;;;5.68;5.28;;;;;;;32.46;67.58;100537.03;5041674;28;66283;-38
2022/05/02 06:03:13;;;;;;;6.10;5.57;;;;;;;32.58;67.41;100545.16;5043200;28;70172;-38
2022/05/02 06:05:46;;;;;;;5.97;5.47;;;;;;;32.63;67.32;100553.41;5022490;28;66197;-40
2022/05/02 06:08:21;;;;;;;5.65;5.15;;;;;;;32.67;66.70;100553.72;5022009;28;69935;-38
2022/05/02 06:10:55;;;;;;;5.50;5.10;;;;;;;32.68;66.80;100541.78;5020499;28;65609;-38
2022/05/02 06:13:29;;;;;;;5.38;4.97;;;;;;;32.66;66.62;100522.22;5022219;28;70046;-37
2022/05/02 06:19:24;;;;;;;8.70;5.13;;;;;;;32.60;66.08;100498.75;5020627;28;69357;-38
2022/05/02 06:21:55;;;;;;;5.03;4.63;;;;;;;32.76;66.23;100508.81;5022918;28;65665;-40
2022/05/02 06:24:28;;;;;;;4.53;4.15;;;;;;;32.46;65.83;100443.91;5021099;28;69634;-40
2022/05/02 06:27:01;;;;;;;5.10;4.70;;;;;;;32.81;65.90;100489.91;5023399;28;65450;-38
2022/05/02 06:29:35;;;;;;;5.47;4.97;;;;;;;32.84;65.81;100494.84;5022641;28;70164;-39
2022/05/02 06:32:10;;;;;;;4.15;3.85;;;;;;;32.31;65.44;100390.09;5022228;28;66994;-39
2022/05/02 06:34:41;;;;;;;4.22;3.92;;;;;;;32.84;65.94;100473.13;5034805;28;70234;-38
2022/05/02 06:37:31;;;;;;;3.90;3.63;;;;;;;32.87;65.76;100488.13;5041924;28;66509;-38
2022/05/02 06:40:13;;;;;;;4.18;3.88;;;;;;;32.84;65.27;100475.84;5039799;28;69363;-39
2022/05/02 06:43:17;;;;;;;3.70;3.50;;;;;;;32.83;63.74;100460.63;5038644;28;66712;-39
2022/05/02 06:46:08;;;;;;;3.28;3.08;;;;;;;32.38;62.68;100371.78;5022167;28;70835;-38
2022/05/02 06:48:52;;;;;;;3.65;3.13;;;;;;;33.02;62.59;100446.88;5038219;28;66453;-39
2022/05/02 06:51:48;;;;;;;4.05;3.78;;;;;;;32.92;60.82;100437.41;5022298;28;70629;-39
2022/05/02 06:54:32;;;;;;;3.30;3.10;;;;;;;32.98;59.30;100440.22;5028718;28;66496;-37
2022/05/02 06:57:21;;;;;;;3.22;3.03;;;;;;;33.04;59.19;100429.25;5053352;28;69935;-38
2022/05/02 07:00:15;;;;;;;2.97;2.78;;;;;;;32.94;59.10;100423.59;5024486;28;66869;-38
2022/05/02 07:03:04;;;;;;;3.80;3.50;;;;;;;33.02;60.15;100420.50;5037079;28;69990;-38
2022/05/02 07:05:52;;;;;;;3.20;3.00;;;;;;;33.02;59.31;100427.84;5021844;28;66034;-38
2022/05/02 07:08:33;;;;;;;2.95;2.75;;;;;;;33.06;59.38;100426.25;5025986;28;69862;-39
2022/05/02 07:11:06;;;;;;;3.05;2.85;;;;;;;32.98;59.52;100407.63;5031573;28;65504;-37
2022/05/02 07:13:58;;;;;;;3.00;2.80;;;;;;;33.09;59.22;100425.78;5032607;28;69355;-38
2022/05/02 07:16:32;;;;;;;3.10;2.83;;;;;;;32.97;59.65;100400.56;5026377;28;65364;-38
2022/05/02 07:19:23;;;;;;;3.22;3.03;;;;;;;33.04;59.06;100401.22;5027033;28;70254;-39
2022/05/02 07:22:07;;;;;;;2.90;2.70;;;;;;;32.59;58.66;100301.56;5029079;28;66203;-39
2022/05/02 07:25:15;;;;;;;3.05;2.85;;;;;;;33.12;58.48;100373.66;5031103;28;70148;-38
2022/05/02 07:28:16;;;;;;;3.03;2.83;;;;;;;32.84;58.53;100325.63;5022063;28;65631;-37
2022/05/02 07:30:49;;;;;;;3.10;2.90;;;;;;;33.19;58.84;100371.59;5034008;28;69242;-37
2022/05/02 07:33:20;;;;;;;3.25;2.92;;;;;;;33.21;58.78;100376.75;5026233;28;65915;-38
2022/05/02 07:35:50;;;;;;;3.17;2.97;;;;;;;33.22;58.78;100368.38;5031155;28;71613;-38
2022/05/02 07:38:22;;;;;;;2.50;2.22;;;;;;;33.17;58.10;100356.59;5035618;28;66208;-38
2022/05/02 07:43:42;;;;;;;3.72;2.35;;;;;;;33.28;58.13;100358.41;5020446;28;64776;-39
2022/05/02 07:46:14;;;;;;;2.95;2.75;;;;;;;33.20;58.25;100346.03;5033336;28;69049;-38
2022/05/02 07:48:46;;;;;;;3.28;3.00;;;;;;;33.27;57.75;100363.03;5030680;28;66199;-38
2022/05/02 07:51:18;;;;;;;3.17;2.85;;;;;;;33.36;57.43;100375.09;5023344;28;70258;-38
2022/05/02 07:53:50;;;;;;;3.58;2.90;;;;;;;33.37;57.43;100374.03;5029673;28;66097;-38
2022/05/02 07:56:23;;;;;;;5.63;2.50;;;;;;;33.05;57.15;100324.09;5033129;28;70156;-37
2022/05/02 07:58:56;;;;;;;2.60;2.50;;;;;;;33.42;57.18;100391.50;5056652;28;65302;-38
2022/05/02 08:01:26;;;;;;;2.85;2.65;;;;;;;33.39;57.05;100392.81;5033954;28;70384;-38
2022/05/02 08:03:57;;;;;;;2.67;2.47;;;;;;;33.43;57.15;100393.94;5032532;28;66226;-38
2022/05/02 08:07:06;;;;;;;2.35;2.15;;;;;;;32.90;56.59;100314.59;5057049;28;70311;-37
2022/05/02 08:10:02;;;;;;;2.40;2.20;;;;;;;33.35;56.36;100383.53;5040517;28;66071;-39
2022/05/02 08:12:42;;;;;;;2.28;2.17;;;;;;;33.51;56.31;100414.47;5022362;28;69737;-39
2022/05/02 08:15:25;;;;;;;2.25;2.05;;;;;;;33.44;56.16;100406.50;5023179;28;65597;-39
2022/05/02 08:18:14;;;;;;;2.53;2.35;;;;;;;33.46;56.31;100420.66;5059526;28;69383;-38
2022/05/02 08:21:05;;;;;;;2.72;2.53;;;;;;;33.37;56.14;100422.97;5035539;28;66771;-38
2022/05/02 08:27:15;;;;;;;2.72;2.53;;;;;;;33.47;56.04;100443.25;5028076;28;66525;-39
2022/05/02 08:30:06;;;;;;;3.20;1.88;;;;;;;33.51;55.93;100447.09;5030225;28;70215;-38
2022/05/02 08:32:57;;;;;;;2.53;2.03;;;;;;;33.43;55.81;100444.78;5024934;28;66593;-38
2022/05/02 08:35:44;;;;;;;2.50;2.30;;;;;;;32.92;55.82;100361.34;5016930;28;69776;-39
2022/05/02 08:38:23;;;;;;;2.40;2.03;;;;;;;33.52;56.12;100440.59;5032698;28;65640;-38
2022/05/02 08:41:08;;;;;;;3.50;2.22;;;;;;;33.54;56.71;100433.88;5020532;28;69734;-38
2022/05/02 08:44:07;;;;;;;2.60;2.40;;;;;;;33.41;57.54;100423.31;5020206;28;65084;-38
2022/05/02 08:46:49;;;;;;;2.92;2.72;;;;;;;33.51;57.77;100428.06;5021504;28;69671;-39
2022/05/02 08:49:36;;;;;;;3.22;3.03;;;;;;;33.52;58.36;100414.25;5030553;28;66477;-39
2022/05/02 08:52:12;;;;;;;4.35;3.00;;;;;;;33.54;58.69;100414.84;5036367;28;70316;-38
2022/05/02 08:55:03;;;;;;;2.45;2.25;;;;;;;33.56;58.72;100409.13;5023123;28;65748;-38
2022/05/02 08:57:48;;;;;;;2.80;2.60;;;;;;;33.52;58.94;100416.13;5067048;28;70650;-39
2022/05/02 09:00:44;;;;;;;5.57;2.75;;;;;;;32.96;59.28;100353.53;5023376;28;66467;-39
2022/05/02 09:03:35;;;;;;;2.80;2.50;;;;;;;33.53;59.45;100420.53;5024290;28;70569;-40
2022/05/02 09:06:21;;;;;;;3.45;3.00;;;;;;;33.34;59.46;100407.16;5025813;28;66633;-38
2022/05/02 09:09:00;;;;;;;3.20;2.90;;;;;;;33.51;59.58;100422.63;5027764;28;70416;-38
2022/05/02 09:11:54;;;;;;;3.58;2.65;;;;;;;33.02;59.83;100338.19;5043007;28;66666;-40
2022/05/02 09:14:55;;;;;;;19.83;3.05;;;;;;;33.33;59.64;100407.41;5043387;28;69838;-40
2022/05/02 09:17:28;;;;;;;17.48;3.20;;;;;;;33.44;59.40;100428.25;5043622;28;66056;-41
2022/05/02 09:20:12;;;;;;;6.30;3.03;;;;;;;32.91;59.60;100354.28;5037035;28;70247;-41
2022/05/02 09:22:54;;;;;;;6.78;2.97;;;;;;;33.32;59.71;100420.19;5023478;28;65948;-40
2022/05/02 09:25:33;;;;;;;;;;;;;;;33.01;60.63;100413.41;5023089;28;70496;-37
2022/05/02 09:28:03;;;;;;;9.07;2.70;;;;;;;33.31;60.05;100404.94;5023973;28;66154;-38
2022/05/02 09:30:42;;;;;;;3.05;2.50;;;;;;;33.35;59.70;100408.81;5021870;28;69465;-40
2022/05/02 09:33:37;;;;;;;8.98;2.65;;;;;;;33.17;59.93;100379.16;5023120;28;66449;-39
2022/05/02 09:36:28;;;;;;;4.28;2.60;;;;;;;33.35;60.14;100400.66;5043202;28;69940;-39
2022/05/02 09:39:04;;;;;;;6.63;3.33;;;;;;;32.66;60.18;100296.81;5043233;28;66195;-39
2022/05/02 09:42:04;;;;;;;3.47;3.00;;;;;;;33.27;60.55;100392.91;5043551;28;70114;-39
2022/05/02 09:51:12;;;;;;;5.30;2.90;;;;;;;33.31;60.59;100401.41;5042335;28;66414;-37
2022/05/02 09:53:49;;;;;;;4.47;3.10;;;;;;;32.96;61.06;100360.84;5043762;28;69805;-38
2022/05/02 09:56:38;;;;;;;2.70;2.50;;;;;;;33.25;60.99;100408.66;5042156;28;66142;-38
2022/05/02 09:59:26;;;;;;;7.97;2.72;;;;;;;32.83;60.85;100341.09;5042942;28;70076;-38
2022/05/02 10:02:17;;;;;;;4.90;3.03;;;;;;;33.17;60.98;100416.41;5043191;28;66342;-37
2022/05/02 10:05:06;;;;;;;11.93;3.72;;;;;;;33.23;61.12;100429.81;5024545;28;69705;-38
2022/05/02 10:07:58;;;;;;;4.90;3.13;;;;;;;32.78;61.27;100376.31;5042233;28;65415;-37
2022/05/02 10:10:46;;;;;;;4.60;3.00;;;;;;;32.81;61.23;100381.25;5041600;28;69660;-38
2022/05/02 10:13:37;;;;;;;5.43;3.75;;;;;;;33.19;61.32;100430.56;5042287;28;65654;-42
2022/05/02 10:16:38;;;;;;;7.72;3.70;;;;;;;33.11;61.26;100442.66;5041452;28;71025;-37
2022/05/02 10:19:43;;;;;;;7.43;3.72;;;;;;;32.67;61.02;100369.06;5041657;28;65400;-38
2022/05/02 10:22:36;;;;;;;5.65;3.45;;;;;;;33.06;61.07;100437.13;5033879;28;69646;-39
2022/05/02 10:25:19;;;;;;;6.32;3.75;;;;;;;33.12;61.73;100457.88;5041601;28;66307;-39
2022/05/02 10:27:55;;;;;;;5.00;4.30;;;;;;;33.16;61.08;100448.19;5042460;28;70928;-39
2022/05/02 10:30:37;;;;;;;6.55;5.05;;;;;;;33.13;60.73;100471.25;5040903;28;66402;-37
2022/05/02 10:33:13;;;;;;;10.75;4.55;;;;;;;33.05;61.26;100452.63;5042849;28;69633;-38
2022/05/02 10:35:46;;;;;;;7.30;4.95;;;;;;;33.11;61.40;100484.25;5037463;28;66265;-39
2022/05/02 10:38:29;;;;;;;6.53;5.30;;;;;;;33.08;61.19;100494.78;5022232;28;69646;-39
2022/05/02 10:41:11;;;;;;;7.72;4.85;;;;;;;32.61;61.55;100424.34;5022240;28;65792;-38
2022/05/02 10:43:50;;;;;;;6.22;4.55;;;;;;;32.61;61.66;100435.22;5022158;28;70511;-39
2022/05/02 10:46:21;;;;;;;7.38;5.03;;;;;;;32.59;61.36;100431.91;5021887;28;65373;-39
2022/05/02 10:49:06;;;;;;;4.80;4.40;;;;;;;32.89;61.60;100489.53;5021422;28;69490;-38
2022/05/02 10:51:55;;;;;;;5.80;5.30;;;;;;;33.04;61.63;100518.06;5021617;28;66040;-38
2022/05/02 10:54:37;;;;;;;6.05;5.60;;;;;;;33.04;61.67;100515.34;5021934;28;69602;-39
2022/05/02 10:57:30;;;;;;;4.97;4.57;;;;;;;32.85;62.03;100507.38;5021583;28;66320;-38
2022/05/02 11:00:06;;;;;;;6.07;5.68;;;;;;;32.74;61.88;100464.00;5013397;28;69327;-38
2022/05/02 11:02:51;;;;;;;7.75;6.78;;;;;;;32.43;61.95;100428.03;5019779;28;66311;-38
2022/05/02 11:05:25;;;;;;;9.25;7.13;;;;;;;32.94;62.14;100499.66;5039077;28;69821;-38
2022/05/02 11:08:04;;;;;;;8.50;7.70;;;;;;;32.96;61.97;100502.97;5040743;28;65965;-38
2022/05/02 11:11:00;;;;;;;9.02;8.35;;;;;;;32.86;61.74;100483.75;5039742;28;70283;-38
2022/05/02 11:13:44;;;;;;;8.85;8.25;;;;;;;32.87;61.97;100504.41;5041457;28;65750;-38
2022/05/02 11:16:54;;;;;;;11.52;10.55;;;;;;;32.19;62.10;100390.13;5022478;28;70107;-38
2022/05/02 11:22:40;;;;;;;13.23;12.13;;;;;;;32.38;62.77;100417.94;5028113;28;68524;-39
2022/05/02 11:25:24;;;;;;;13.43;12.23;;;;;;;32.84;62.52;100494.84;5024769;28;67154;-39
2022/05/02 11:28:15;;;;;;;14.07;12.93;;;;;;;32.77;62.75;100504.25;5027397;28;69772;-39
2022/05/02 11:30:49;;;;;;;;;;;;;;;32.45;63.97;100508.19;5034620;28;65728;-38
2022/05/02 11:33:43;;;;;;;15.45;13.80;;;;;;;31.81;63.25;100377.09;5025988;28;70387;-38
2022/05/02 11:36:15;;;;;;;14.98;13.88;;;;;;;32.77;63.05;100521.34;5028426;28;66187;-38
2022/05/02 11:39:02;;;;;;;14.35;13.00;;;;;;;32.76;63.01;100525.13;5024363;28;70251;-38
2022/05/02 11:41:33;;;;;;;14.52;13.60;;;;;;;32.69;62.92;100514.41;5037657;28;65621;-38
2022/05/02 11:44:13;;;;;;;15.85;14.23;;;;;;;32.39;62.94;100470.31;5029931;28;70122;-39
2022/05/02 11:47:03;;;;;;;15.05;13.25;;;;;;;32.00;63.09;100429.34;5030514;28;66359;-38
2022/05/02 11:50:03;;;;;;;17.05;15.25;;;;;;;32.65;63.27;100534.13;5034833;28;69485;-37
2022/05/02 11:52:38;;;;;;;15.95;14.73;;;;;;;32.70;63.05;100542.38;5025645;28;66315;-39
2022/05/02 11:55:10;;;;;;;16.15;14.65;;;;;;;32.71;63.14;100549.50;5025769;28;70777;-38
2022/05/02 11:57:45;;;;;;;16.60;15.27;;;;;;;32.65;63.37;100547.72;5021870;28;65304;-37
2022/05/02 12:00:16;;;;;;;16.90;15.80;;;;;;;32.66;63.42;100557.53;5031222;28;70088;-38
2022/05/02 12:02:54;;;;;;;17.50;16.23;;;;;;;32.72;63.07;100573.69;5032300;28;67068;-39
2022/05/02 12:05:32;;;;;;;18.10;16.48;;;;;;;32.27;63.33;100505.66;5030974;28;70100;-38
2022/05/02 12:08:06;;;;;;;18.02;16.50;;;;;;;32.69;63.34;100567.91;5033625;28;66247;-38
2022/05/02 12:10:47;;;;;;;18.45;16.98;;;;;;;32.69;63.36;100574.16;5026923;28;70559;-39
2022/05/02 12:13:19;;;;;;;18.20;16.77;;;;;;;32.69;63.29;100595.06;5023867;28;66704;-38
2022/05/02 12:15:59;;;;;;;18.42;17.02;;;;;;;32.58;63.46;100579.63;5019258;28;69154;-38
2022/05/02 12:18:48;;;;;;;17.40;16.00;;;;;;;32.63;63.52;100601.47;5033876;28;65366;-38
2022/05/02 12:21:24;;;;;;;19.17;17.33;;;;;;;32.66;63.51;100611.84;5027305;28;68817;-39
2022/05/02 12:23:58;;;;;;;18.40;16.85;;;;;;;32.21;63.48;100550.03;5030335;28;65493;-41
2022/05/02 12:26:29;;;;;;;19.63;17.90;;;;;;;32.58;63.66;100598.63;5027429;28;69547;-38
2022/05/02 12:29:04;;;;;;;18.35;16.90;;;;;;;32.15;63.72;100540.09;5031588;28;65602;-38
2022/05/02 12:31:37;;;;;;;19.42;17.75;;;;;;;32.30;63.27;100575.72;5023773;28;69611;-38
2022/05/02 12:34:12;;;;;;;19.02;17.60;;;;;;;32.28;63.70;100583.28;5025468;28;66295;-38
2022/05/02 12:36:48;;;;;;;18.17;16.83;;;;;;;32.68;63.71;100658.56;5020966;28;69369;-40
2022/05/02 12:39:28;;;;;;;19.73;18.00;;;;;;;32.66;63.63;100663.44;5029429;28;65812;-37
2022/05/02 12:42:15;;;;;;;18.20;16.73;;;;;;;32.65;63.91;100672.63;5018200;28;69068;-38
2022/05/02 12:45:03;;;;;;;;;;;;;;;32.32;64.91;100681.34;5021803;28;66368;-40